Time;durP1;ratioP1;P1;durP2;ratioP2;P2;SDS_P1;SDS_P2;PMS_P1;PMS_P2;Temp;Humidity;BMP_temperature;BMP_pressure;BME280_temperature;BME280_humidity;BME280_pressure;Samples;Min_cycle;Max_cycle;Signal;HPM_P1;HPM_P2
2021/07/25 00:00:18;;;;;;;;;;;;;;;;;;1478311;40;8011;-66
2021/07/25 00:01:20;;;;;;;;;;;;;;;;;;1478542;40;7116;-66
2021/07/25 00:02:23;;;;;;;;;;;;;;;;;;1478412;40;7039;-66
2021/07/25 00:03:26;;;;;;;;;;;;;;;;;;1480854;40;7183;-66
2021/07/25 00:04:31;;;;;;;;;;;;;;;;;;1482954;40;7007;-66
2021/07/25 00:05:34;;;;;;;;;;;;;;;;;;1483396;40;7027;-66
2021/07/25 00:06:36;;;;;;;;;;;;;;;;;;1482938;40;7025;-67
2021/07/25 00:07:39;;;;;;;;;;;;;;;;;;1482831;40;7055;-66
2021/07/25 00:08:41;;;;;;;;;;;;;;;;;;1481459;40;7993;-66
2021/07/25 00:09:43;;;;;;;;;;;;;;;;;;1478405;40;7035;-66
2021/07/25 00:10:47;;;;;;;;;;;;;;;;;;1478218;40;7038;-66
2021/07/25 00:11:49;;;;;;;;;;;;;;;;;;1479637;40;7119;-66
2021/07/25 00:12:52;;;;;;;;;;;;;;;;;;1482951;40;7031;-66
2021/07/25 00:13:57;;;;;;;;;;;;;;;;;;1479761;40;7032;-66
2021/07/25 00:15:00;;;;;;;;;;;;;;;;;;1478293;40;8012;-66
2021/07/25 00:16:03;;;;;;;;;;;;;;;;;;1478541;40;7003;-66
2021/07/25 00:17:12;;;;;;;;;;;;;;;;;;1478413;40;7000;-66
2021/07/25 00:18:14;;;;;;;;;;;;;;;;;;1478513;40;7052;-66
2021/07/25 00:19:16;;;;;;;;;;;;;;;;;;1478607;40;7000;-66
2021/07/25 00:20:19;;;;;;;;;;;;;;;;;;1480308;40;6999;-66
2021/07/25 00:21:21;;;;;;;;;;;;;;;;;;1478175;40;7047;-66
2021/07/25 00:22:24;;;;;;;;;;;;;;;;;;1478180;40;7075;-66
2021/07/25 00:23:28;;;;;;;;;;;;;;;;;;1478123;40;7007;-66
2021/07/25 00:24:33;;;;;;;;;;;;;;;;;;1478313;40;7048;-66
2021/07/25 00:25:36;;;;;;;;;;;;;;;;;;1479535;40;8922;-66
2021/07/25 00:26:45;;;;;;;;;;;;;;;;;;1482148;40;7000;-66
2021/07/25 00:27:56;;;;;;;;;;;;;;;;;;1482660;40;7950;-66
2021/07/25 00:28:59;;;;;;;;;;;;;;;;;;1482422;40;7008;-66
2021/07/25 00:30:01;;;;;;;;;;;;;;;;;;1479623;40;7035;-66
2021/07/25 00:31:05;;;;;;;;;;;;;;;;;;1478874;40;7083;-66
2021/07/25 00:32:08;;;;;;;;;;;;;;;;;;1478049;40;7007;-66
2021/07/25 00:33:11;;;;;;;;;;;;;;;;;;1478051;40;7145;-66
2021/07/25 00:34:13;;;;;;;;;;;;;;;;;;1478142;40;7004;-66
2021/07/25 00:35:18;;;;;;;;;;;;;;;;;;1477673;40;7012;-66
2021/07/25 00:36:20;;;;;;;;;;;;;;;;;;1477632;40;7000;-66
2021/07/25 00:37:22;;;;;;;;;;;;;;;;;;1478607;40;7035;-66
2021/07/25 00:38:25;;;;;;;;;;;;;;;;;;1480385;40;7931;-66
2021/07/25 00:39:27;;;;;;;;;;;;;;;;;;1482006;40;7027;-66
2021/07/25 00:40:41;;;;;;;;;;;;;;;;;;1481382;40;7012;-66
2021/07/25 00:41:43;;;;;;;;;;;;;;;;;;1482682;40;7003;-66
2021/07/25 00:42:46;;;;;;;;;;;;;;;;;;1482278;40;7003;-66
2021/07/25 00:43:48;;;;;;;;;;;;;;;;;;1482396;40;7960;-66
2021/07/25 00:44:54;;;;;;;;;;;;;;;;;;1478776;40;7003;-66
2021/07/25 00:45:56;;;;;;;;;;;;;;;;;;1478052;40;7003;-66
2021/07/25 00:47:00;;;;;;;;;;;;;;;;;;1478458;40;7038;-66
2021/07/25 00:48:03;;;;;;;;;;;;;;;;;;1478615;40;7003;-66
2021/07/25 00:49:06;;;;;;;;;;;;;;;;;;1478787;40;7008;-66
2021/07/25 00:50:08;;;;;;;;;;;;;;;;;;1478258;40;8339;-66
2021/07/25 00:51:12;;;;;;;;;;;;;;;;;;1478324;40;7013;-66
2021/07/25 00:52:14;;;;;;;;;;;;;;;;;;1478394;40;7389;-66
2021/07/25 00:53:18;;;;;;;;;;;;;;;;;;1478336;40;7039;-66
2021/07/25 00:54:22;;;;;;;;;;;;;;;;;;1478248;40;7246;-66
2021/07/25 00:55:27;;;;;;;;;;;;;;;;;;1479956;40;7007;-66
2021/07/25 00:56:29;;;;;;;;;;;;;;;;;;1482302;40;7016;-66
2021/07/25 00:57:31;;;;;;;;;;;;;;;;;;1482429;40;7012;-66
2021/07/25 00:58:41;;;;;;;;;;;;;;;;;;1482377;40;7008;-66
2021/07/25 00:59:44;;;;;;;;;;;;;;;;;;1480298;40;7007;-66
2021/07/25 01:00:46;;;;;;;;;;;;;;;;;;1477666;40;7044;-66
2021/07/25 01:01:49;;;;;;;;;;;;;;;;;;1478349;40;7012;-66
2021/07/25 01:03:11;;;;;;;;;;;;;;;;;;1478307;40;6999;-67
2021/07/25 01:04:21;;;;;;;;;;;;;;;;;;1478354;40;7131;-66
2021/07/25 01:05:35;;;;;;;;;;;;;;;;;;1478038;40;7043;-66
2021/07/25 01:06:56;;;;;;;;;;;;;;;;;;1478429;40;7003;-66
2021/07/25 01:08:22;;;;;;;;;;;;;;;;;;1478248;40;7048;-66
2021/07/25 01:09:30;;;;;;;;;;;;;;;;;;1477590;40;7035;-66
2021/07/25 01:10:33;;;;;;;;;;;;;;;;;;1479972;40;7012;-66
2021/07/25 01:11:52;;;;;;;;;;;;;;;;;;1477741;40;7016;-66
2021/07/25 01:13:00;;;;;;;;;;;;;;;;;;1478280;40;7016;-66
2021/07/25 01:14:03;;;;;;;;;;;;;;;;;;1480219;40;7052;-66
2021/07/25 01:15:07;;;;;;;;;;;;;;;;;;1482261;40;7016;-66
2021/07/25 01:16:10;;;;;;;;;;;;;;;;;;1478357;40;6999;-66
2021/07/25 01:17:29;;;;;;;;;;;;;;;;;;1478290;40;7039;-66
2021/07/25 01:18:32;;;;;;;;;;;;;;;;;;1478013;40;7900;-65
2021/07/25 01:19:34;;;;;;;;;;;;;;;;;;1478148;40;7108;-66
2021/07/25 01:20:36;;;;;;;;;;;;;;;;;;1478986;40;7012;-66
2021/07/25 01:21:39;;;;;;;;;;;;;;;;;;1478767;40;7040;-66
2021/07/25 01:22:46;;;;;;;;;;;;;;;;;;1478537;40;7436;-66
2021/07/25 01:23:49;;;;;;;;;;;;;;;;;;1478333;40;7008;-66
2021/07/25 01:24:53;;;;;;;;;;;;;;;;;;1478912;40;6995;-66
2021/07/25 01:25:57;;;;;;;;;;;;;;;;;;1479277;40;7122;-66
2021/07/25 01:27:00;;;;;;;;;;;;;;;;;;1482184;40;7288;-66
2021/07/25 01:28:06;;;;;;;;;;;;;;;;;;1481278;40;7004;-66
2021/07/25 01:29:11;;;;;;;;;;;;;;;;;;1478391;40;6999;-66
2021/07/25 01:30:16;;;;;;;;;;;;;;;;;;1479499;40;7035;-66
2021/07/25 01:31:23;;;;;;;;;;;;;;;;;;1480297;40;7103;-66
2021/07/25 01:32:27;;;;;;;;;;;;;;;;;;1478115;40;7062;-66
2021/07/25 01:33:33;;;;;;;;;;;;;;;;;;1478554;40;6999;-66
2021/07/25 01:34:36;;;;;;;;;;;;;;;;;;1479488;40;7307;-66
2021/07/25 01:35:40;;;;;;;;;;;;;;;;;;1480237;40;7303;-66
2021/07/25 01:36:43;;;;;;;;;;;;;;;;;;1477836;40;7004;-66
2021/07/25 01:37:46;;;;;;;;;;;;;;;;;;1478357;40;6999;-66
2021/07/25 01:38:48;;;;;;;;;;;;;;;;;;1478742;40;7007;-66
2021/07/25 01:39:51;;;;;;;;;;;;;;;;;;1478390;40;7016;-66
2021/07/25 01:41:01;;;;;;;;;;;;;;;;;;1477681;40;7032;-66
2021/07/25 01:42:04;;;;;;;;;;;;;;;;;;1478037;40;7019;-66
2021/07/25 01:43:09;;;;;;;;;;;;;;;;;;1478448;40;7063;-66
2021/07/25 01:44:12;;;;;;;;;;;;;;;;;;1479298;40;7004;-66
2021/07/25 01:45:15;;;;;;;;;;;;;;;;;;1483088;40;7018;-66
2021/07/25 01:46:17;;;;;;;;;;;;;;;;;;1483329;40;6999;-66
2021/07/25 01:47:20;;;;;;;;;;;;;;;;;;1482838;40;7162;-66
2021/07/25 01:48:22;;;;;;;;;;;;;;;;;;1483390;40;7938;-67
2021/07/25 01:49:25;;;;;;;;;;;;;;;;;;1483544;40;8038;-66
2021/07/25 01:50:27;;;;;;;;;;;;;;;;;;1483446;40;7087;-66
2021/07/25 01:51:29;;;;;;;;;;;;;;;;;;1482764;40;6999;-66
2021/07/25 01:52:32;;;;;;;;;;;;;;;;;;1483091;40;7035;-66
2021/07/25 01:53:35;;;;;;;;;;;;;;;;;;1482662;40;7042;-66
2021/07/25 01:54:37;;;;;;;;;;;;;;;;;;1483298;40;7035;-66
2021/07/25 01:55:40;;;;;;;;;;;;;;;;;;1478495;40;7003;-66
2021/07/25 01:56:42;;;;;;;;;;;;;;;;;;1478782;40;7003;-66
2021/07/25 01:57:45;;;;;;;;;;;;;;;;;;1477886;40;7012;-66
2021/07/25 01:58:47;;;;;;;;;;;;;;;;;;1478294;40;7035;-66
2021/07/25 01:59:49;;;;;;;;;;;;;;;;;;1481911;40;7007;-66
2021/07/25 02:00:52;;;;;;;;;;;;;;;;;;1479014;40;7158;-66
2021/07/25 02:01:55;;;;;;;;;;;;;;;;;;1478408;40;7031;-66
2021/07/25 02:02:58;;;;;;;;;;;;;;;;;;1482232;40;7114;-66
2021/07/25 02:04:00;;;;;;;;;;;;;;;;;;1482717;40;7223;-66
2021/07/25 02:05:04;;;;;;;;;;;;;;;;;;1480912;40;8006;-66
2021/07/25 02:06:07;;;;;;;;;;;;;;;;;;1478754;40;7027;-66
2021/07/25 02:07:09;;;;;;;;;;;;;;;;;;1478880;40;7199;-66
2021/07/25 02:08:12;;;;;;;;;;;;;;;;;;1481076;40;7012;-66
2021/07/25 02:09:15;;;;;;;;;;;;;;;;;;1483454;40;7039;-66
2021/07/25 02:10:17;;;;;;;;;;;;;;;;;;1478998;40;7019;-66
2021/07/25 02:11:20;;;;;;;;;;;;;;;;;;1478948;40;7035;-66
2021/07/25 02:12:22;;;;;;;;;;;;;;;;;;1478874;40;8031;-66
2021/07/25 02:13:26;;;;;;;;;;;;;;;;;;1478601;40;7035;-66
2021/07/25 02:14:28;;;;;;;;;;;;;;;;;;1483247;40;7012;-66
2021/07/25 02:15:31;;;;;;;;;;;;;;;;;;1483136;40;7100;-67
2021/07/25 02:16:33;;;;;;;;;;;;;;;;;;1483131;40;7043;-66
2021/07/25 02:17:36;;;;;;;;;;;;;;;;;;1482941;40;7000;-66
2021/07/25 02:18:38;;;;;;;;;;;;;;;;;;1482839;40;6999;-66
2021/07/25 02:19:40;;;;;;;;;;;;;;;;;;1479236;40;7486;-66
2021/07/25 02:20:43;;;;;;;;;;;;;;;;;;1478542;40;7003;-66
2021/07/25 02:21:45;;;;;;;;;;;;;;;;;;1479000;40;7202;-66
2021/07/25 02:22:48;;;;;;;;;;;;;;;;;;1478467;40;7062;-66
2021/07/25 02:23:50;;;;;;;;;;;;;;;;;;1478634;40;6999;-66
2021/07/25 02:24:53;;;;;;;;;;;;;;;;;;1478859;40;7177;-66
2021/07/25 02:25:55;;;;;;;;;;;;;;;;;;1479312;40;7042;-66
2021/07/25 02:26:58;;;;;;;;;;;;;;;;;;1478369;40;7027;-66
2021/07/25 02:28:00;;;;;;;;;;;;;;;;;;1482316;40;7030;-66
2021/07/25 02:29:04;;;;;;;;;;;;;;;;;;1477460;40;7107;-66
2021/07/25 02:30:06;;;;;;;;;;;;;;;;;;1477783;40;7000;-66
2021/07/25 02:31:09;;;;;;;;;;;;;;;;;;1478727;40;6999;-66
2021/07/25 02:32:11;;;;;;;;;;;;;;;;;;1478840;40;7041;-66
2021/07/25 02:33:14;;;;;;;;;;;;;;;;;;1479356;40;7330;-66
2021/07/25 02:34:16;;;;;;;;;;;;;;;;;;1478810;40;7006;-66
2021/07/25 02:35:19;;;;;;;;;;;;;;;;;;1478298;40;7903;-66
2021/07/25 02:36:21;;;;;;;;;;;;;;;;;;1482401;40;7031;-66
2021/07/25 02:37:23;;;;;;;;;;;;;;;;;;1478758;40;7031;-66
2021/07/25 02:38:26;;;;;;;;;;;;;;;;;;1478988;40;7919;-66
2021/07/25 02:39:28;;;;;;;;;;;;;;;;;;1478506;40;7067;-66
2021/07/25 02:40:31;;;;;;;;;;;;;;;;;;1478001;40;7017;-66
2021/07/25 02:41:33;;;;;;;;;;;;;;;;;;1480982;40;7012;-66
2021/07/25 02:42:36;;;;;;;;;;;;;;;;;;1478585;40;7994;-66
2021/07/25 02:43:39;;;;;;;;;;;;;;;;;;1478712;40;7009;-66
2021/07/25 02:44:41;;;;;;;;;;;;;;;;;;1480450;40;6992;-66
2021/07/25 02:45:43;;;;;;;;;;;;;;;;;;1482679;40;7034;-66
2021/07/25 02:46:46;;;;;;;;;;;;;;;;;;1483061;40;7008;-65
2021/07/25 02:47:48;;;;;;;;;;;;;;;;;;1482999;40;7923;-66
2021/07/25 02:48:51;;;;;;;;;;;;;;;;;;1482742;40;8824;-66
2021/07/25 02:49:53;;;;;;;;;;;;;;;;;;1482895;40;7907;-66
2021/07/25 02:50:58;;;;;;;;;;;;;;;;;;1481459;40;7112;-66
2021/07/25 02:52:01;;;;;;;;;;;;;;;;;;1478700;40;7007;-66
2021/07/25 02:53:04;;;;;;;;;;;;;;;;;;1479207;40;7055;-66
2021/07/25 02:54:06;;;;;;;;;;;;;;;;;;1479250;40;7011;-66
2021/07/25 02:55:09;;;;;;;;;;;;;;;;;;1478799;40;7150;-66
2021/07/25 02:56:11;;;;;;;;;;;;;;;;;;1478904;40;7191;-66
2021/07/25 02:57:14;;;;;;;;;;;;;;;;;;1479050;40;7003;-67
2021/07/25 02:58:16;;;;;;;;;;;;;;;;;;1479135;40;7003;-66
2021/07/25 02:59:18;;;;;;;;;;;;;;;;;;1479587;40;7063;-66
2021/07/25 03:00:21;;;;;;;;;;;;;;;;;;1482700;40;7007;-66
2021/07/25 03:01:23;;;;;;;;;;;;;;;;;;1482772;40;7011;-66
2021/07/25 03:02:26;;;;;;;;;;;;;;;;;;1482950;40;7206;-66
2021/07/25 03:03:30;;;;;;;;;;;;;;;;;;1482787;40;7007;-66
2021/07/25 03:04:32;;;;;;;;;;;;;;;;;;1478451;40;7184;-67
2021/07/25 03:05:35;;;;;;;;;;;;;;;;;;1478374;40;7003;-66
2021/07/25 03:06:37;;;;;;;;;;;;;;;;;;1478190;40;7004;-66
2021/07/25 03:07:41;;;;;;;;;;;;;;;;;;1479072;40;7959;-66
2021/07/25 03:08:43;;;;;;;;;;;;;;;;;;1478853;40;7039;-67
2021/07/25 03:09:46;;;;;;;;;;;;;;;;;;1478883;40;7075;-66
2021/07/25 03:10:48;;;;;;;;;;;;;;;;;;1478618;40;7208;-66
2021/07/25 03:11:50;;;;;;;;;;;;;;;;;;1479260;40;7919;-66
2021/07/25 03:12:53;;;;;;;;;;;;;;;;;;1478875;40;7016;-66
2021/07/25 03:13:59;;;;;;;;;;;;;;;;;;1477960;40;7004;-66
2021/07/25 03:15:01;;;;;;;;;;;;;;;;;;1474450;40;7935;-67
2021/07/25 03:16:05;;;;;;;;;;;;;;;;;;1478451;40;7904;-66
2021/07/25 03:17:07;;;;;;;;;;;;;;;;;;1479082;40;7007;-66
2021/07/25 03:18:10;;;;;;;;;;;;;;;;;;1478961;40;7007;-66
2021/07/25 03:19:12;;;;;;;;;;;;;;;;;;1478427;40;7036;-66
2021/07/25 03:20:15;;;;;;;;;;;;;;;;;;1478708;40;7227;-66
2021/07/25 03:21:17;;;;;;;;;;;;;;;;;;1478631;40;8085;-66
2021/07/25 03:22:21;;;;;;;;;;;;;;;;;;1478699;40;6999;-66
2021/07/25 03:23:24;;;;;;;;;;;;;;;;;;1478253;40;6995;-67
2021/07/25 03:24:27;;;;;;;;;;;;;;;;;;1478489;40;7000;-66
2021/07/25 03:25:29;;;;;;;;;;;;;;;;;;1478782;40;7039;-67
2021/07/25 03:26:31;;;;;;;;;;;;;;;;;;1478970;40;7053;-66
2021/07/25 03:27:34;;;;;;;;;;;;;;;;;;1478855;40;7019;-66
2021/07/25 03:28:40;;;;;;;;;;;;;;;;;;1478100;40;7008;-66
2021/07/25 03:29:42;;;;;;;;;;;;;;;;;;1477780;40;6999;-66
2021/07/25 03:30:46;;;;;;;;;;;;;;;;;;1477870;40;7152;-66
2021/07/25 03:31:48;;;;;;;;;;;;;;;;;;1478658;40;7000;-66
2021/07/25 03:32:51;;;;;;;;;;;;;;;;;;1480675;40;6999;-66
2021/07/25 03:33:53;;;;;;;;;;;;;;;;;;1482810;40;7228;-66
2021/07/25 03:34:56;;;;;;;;;;;;;;;;;;1478205;40;7008;-66
2021/07/25 03:35:58;;;;;;;;;;;;;;;;;;1478292;40;6996;-66
2021/07/25 03:37:01;;;;;;;;;;;;;;;;;;1478762;40;7215;-66
2021/07/25 03:38:04;;;;;;;;;;;;;;;;;;1479236;40;6999;-66
2021/07/25 03:39:09;;;;;;;;;;;;;;;;;;1478690;40;7020;-66
2021/07/25 03:40:13;;;;;;;;;;;;;;;;;;1478443;40;7909;-66
2021/07/25 03:41:15;;;;;;;;;;;;;;;;;;1482152;40;6995;-66
2021/07/25 03:42:18;;;;;;;;;;;;;;;;;;1482835;40;6999;-66
2021/07/25 03:43:20;;;;;;;;;;;;;;;;;;1482237;40;7011;-67
2021/07/25 03:44:23;;;;;;;;;;;;;;;;;;1482907;40;7027;-66
2021/07/25 03:45:25;;;;;;;;;;;;;;;;;;1478124;40;7012;-66
2021/07/25 03:46:28;;;;;;;;;;;;;;;;;;1478535;40;7031;-64
2021/07/25 03:47:32;;;;;;;;;;;;;;;;;;1478383;40;7031;-65
2021/07/25 03:48:35;;;;;;;;;;;;;;;;;;1479717;40;7012;-64
2021/07/25 03:49:39;;;;;;;;;;;;;;;;;;1483005;40;7056;-65
2021/07/25 03:50:42;;;;;;;;;;;;;;;;;;1483117;40;7366;-64
2021/07/25 03:51:44;;;;;;;;;;;;;;;;;;1482993;40;7007;-64
2021/07/25 03:52:47;;;;;;;;;;;;;;;;;;1482544;40;7139;-66
2021/07/25 03:53:50;;;;;;;;;;;;;;;;;;1482197;40;7030;-66
2021/07/25 03:54:55;;;;;;;;;;;;;;;;;;1482889;40;7163;-66
2021/07/25 03:55:57;;;;;;;;;;;;;;;;;;1482664;40;7020;-66
2021/07/25 03:57:00;;;;;;;;;;;;;;;;;;1482365;40;7035;-66
2021/07/25 03:58:03;;;;;;;;;;;;;;;;;;1479086;40;7070;-65
2021/07/25 03:59:05;;;;;;;;;;;;;;;;;;1479180;40;7024;-66
2021/07/25 04:00:08;;;;;;;;;;;;;;;;;;1478656;40;8426;-66
2021/07/25 04:01:10;;;;;;;;;;;;;;;;;;1478873;40;7039;-66
2021/07/25 04:02:13;;;;;;;;;;;;;;;;;;1479177;40;6996;-67
2021/07/25 04:03:15;;;;;;;;;;;;;;;;;;1478336;40;7063;-66
2021/07/25 04:04:18;;;;;;;;;;;;;;;;;;1478564;40;7003;-66
2021/07/25 04:05:21;;;;;;;;;;;;;;;;;;1478606;40;7007;-66
2021/07/25 04:06:23;;;;;;;;;;;;;;;;;;1478816;40;7979;-66
2021/07/25 04:07:26;;;;;;;;;;;;;;;;;;1479527;40;7016;-67
2021/07/25 04:08:29;;;;;;;;;;;;;;;;;;1478551;40;7004;-66
2021/07/25 04:09:31;;;;;;;;;;;;;;;;;;1478583;40;6999;-66
2021/07/25 04:10:38;;;;;;;;;;;;;;;;;;1480789;40;7174;-66
2021/07/25 04:11:40;;;;;;;;;;;;;;;;;;1482958;40;7066;-67
2021/07/25 04:12:43;;;;;;;;;;;;;;;;;;1482868;40;7007;-66
2021/07/25 04:13:46;;;;;;;;;;;;;;;;;;1480918;40;7008;-66
2021/07/25 04:14:48;;;;;;;;;;;;;;;;;;1482652;40;7229;-66
2021/07/25 04:15:51;;;;;;;;;;;;;;;;;;1483006;40;7051;-67
2021/07/25 04:16:53;;;;;;;;;;;;;;;;;;1479545;40;7017;-66
2021/07/25 04:17:56;;;;;;;;;;;;;;;;;;1478194;40;7197;-66
2021/07/25 04:18:58;;;;;;;;;;;;;;;;;;1478490;40;7039;-67
2021/07/25 04:20:01;;;;;;;;;;;;;;;;;;1478695;40;6999;-66
2021/07/25 04:21:04;;;;;;;;;;;;;;;;;;1478579;40;7206;-66
2021/07/25 04:22:06;;;;;;;;;;;;;;;;;;1478320;40;7031;-66
2021/07/25 04:23:08;;;;;;;;;;;;;;;;;;1478011;40;6996;-66
2021/07/25 04:24:11;;;;;;;;;;;;;;;;;;1481838;40;7047;-66
2021/07/25 04:25:13;;;;;;;;;;;;;;;;;;1481388;40;7008;-67
2021/07/25 04:26:16;;;;;;;;;;;;;;;;;;1478563;40;7000;-66
2021/07/25 04:27:18;;;;;;;;;;;;;;;;;;1482052;40;7039;-66
2021/07/25 04:28:21;;;;;;;;;;;;;;;;;;1482231;40;7108;-66
2021/07/25 04:29:24;;;;;;;;;;;;;;;;;;1482463;40;7190;-66
2021/07/25 04:30:30;;;;;;;;;;;;;;;;;;1482050;40;7023;-66
2021/07/25 04:31:33;;;;;;;;;;;;;;;;;;1477468;40;7039;-66
2021/07/25 04:32:36;;;;;;;;;;;;;;;;;;1479498;40;7229;-66
2021/07/25 04:33:39;;;;;;;;;;;;;;;;;;1480049;40;7007;-67
2021/07/25 04:34:42;;;;;;;;;;;;;;;;;;1482105;40;7003;-66
2021/07/25 04:35:45;;;;;;;;;;;;;;;;;;1482316;40;7008;-66
2021/07/25 04:36:47;;;;;;;;;;;;;;;;;;1479067;40;7008;-66
2021/07/25 04:37:53;;;;;;;;;;;;;;;;;;1478506;40;7269;-67
2021/07/25 04:38:57;;;;;;;;;;;;;;;;;;1478389;40;7012;-66
2021/07/25 04:39:59;;;;;;;;;;;;;;;;;;1477818;40;7119;-66
2021/07/25 04:41:04;;;;;;;;;;;;;;;;;;1482026;40;7023;-66
2021/07/25 04:42:07;;;;;;;;;;;;;;;;;;1478827;40;7034;-66
2021/07/25 04:43:13;;;;;;;;;;;;;;;;;;1478792;40;7031;-67
2021/07/25 04:44:23;;;;;;;;;;;;;;;;;;1482285;40;7008;-66
2021/07/25 04:45:40;;;;;;;;;;;;;;;;;;1481720;40;7951;-66
2021/07/25 04:46:47;;;;;;;;;;;;;;;;;;1482569;40;7020;-66
2021/07/25 04:47:54;;;;;;;;;;;;;;;;;;1478285;40;7007;-66
2021/07/25 04:49:06;;;;;;;;;;;;;;;;;;1478139;40;7008;-67
2021/07/25 04:50:14;;;;;;;;;;;;;;;;;;1478489;40;7116;-66
2021/07/25 04:51:18;;;;;;;;;;;;;;;;;;1478683;40;7007;-66
2021/07/25 04:52:23;;;;;;;;;;;;;;;;;;1478331;40;6999;-67
2021/07/25 04:53:27;;;;;;;;;;;;;;;;;;1478712;40;7213;-66
2021/07/25 04:54:34;;;;;;;;;;;;;;;;;;1478245;40;7050;-66
2021/07/25 04:55:36;;;;;;;;;;;;;;;;;;1478456;40;7051;-66
2021/07/25 04:56:57;;;;;;;;;;;;;;;;;;1479052;40;7036;-66
2021/07/25 04:58:04;;;;;;;;;;;;;;;;;;1478648;40;7003;-67
2021/07/25 04:59:13;;;;;;;;;;;;;;;;;;1479102;40;7208;-66
2021/07/25 05:00:15;;;;;;;;;;;;;;;;;;1483238;40;7903;-66
2021/07/25 05:01:24;;;;;;;;;;;;;;;;;;1483242;40;7000;-66
2021/07/25 05:02:31;;;;;;;;;;;;;;;;;;1482998;40;6995;-66
2021/07/25 05:03:34;;;;;;;;;;;;;;;;;;1483327;40;7003;-67
2021/07/25 05:04:37;;;;;;;;;;;;;;;;;;1483061;40;7007;-66
2021/07/25 05:05:39;;;;;;;;;;;;;;;;;;1483541;40;7033;-66
2021/07/25 05:06:42;;;;;;;;;;;;;;;;;;1478423;40;7023;-66
2021/07/25 05:07:44;;;;;;;;;;;;;;;;;;1479050;40;7043;-66
2021/07/25 05:08:47;;;;;;;;;;;;;;;;;;1478947;40;7015;-66
2021/07/25 05:09:49;;;;;;;;;;;;;;;;;;1478972;40;7204;-66
2021/07/25 05:10:56;;;;;;;;;;;;;;;;;;1482287;40;7517;-67
2021/07/25 05:12:17;;;;;;;;;;;;;;;;;;1483403;40;7901;-67
2021/07/25 05:13:25;;;;;;;;;;;;;;;;;;1481420;40;7007;-66
2021/07/25 05:14:27;;;;;;;;;;;;;;;;;;1482310;40;7117;-67
2021/07/25 05:15:31;;;;;;;;;;;;;;;;;;1482831;40;8002;-67
2021/07/25 05:16:40;;;;;;;;;;;;;;;;;;1483377;40;7179;-66
2021/07/25 05:17:54;;;;;;;;;;;;;;;;;;1481945;40;7035;-66
2021/07/25 05:19:09;;;;;;;;;;;;;;;;;;1483309;40;7060;-67
2021/07/25 05:20:15;;;;;;;;;;;;;;;;;;1482855;40;7972;-66
2021/07/25 05:21:29;;;;;;;;;;;;;;;;;;1483204;40;7032;-67
2021/07/25 05:22:31;;;;;;;;;;;;;;;;;;1482954;40;7930;-66
2021/07/25 05:23:42;;;;;;;;;;;;;;;;;;1482470;40;7012;-66
2021/07/25 05:24:46;;;;;;;;;;;;;;;;;;1482853;40;7038;-66
2021/07/25 05:25:53;;;;;;;;;;;;;;;;;;1483215;40;7003;-66
2021/07/25 05:27:00;;;;;;;;;;;;;;;;;;1478494;40;7919;-66
2021/07/25 05:28:05;;;;;;;;;;;;;;;;;;1478752;40;7047;-66
2021/07/25 05:29:09;;;;;;;;;;;;;;;;;;1479352;40;7026;-67
2021/07/25 05:30:14;;;;;;;;;;;;;;;;;;1480281;40;7008;-66
2021/07/25 05:31:18;;;;;;;;;;;;;;;;;;1478995;40;7934;-66
2021/07/25 05:32:20;;;;;;;;;;;;;;;;;;1478185;40;7982;-66
2021/07/25 05:33:23;;;;;;;;;;;;;;;;;;1478736;40;7035;-66
2021/07/25 05:34:26;;;;;;;;;;;;;;;;;;1478674;40;7016;-67
2021/07/25 05:35:28;;;;;;;;;;;;;;;;;;1478127;40;8701;-66
2021/07/25 05:36:31;;;;;;;;;;;;;;;;;;1478452;40;7008;-66
2021/07/25 05:37:34;;;;;;;;;;;;;;;;;;1479366;40;7398;-67
2021/07/25 05:38:36;;;;;;;;;;;;;;;;;;1478978;40;7003;-66
2021/07/25 05:39:38;;;;;;;;;;;;;;;;;;1478701;40;7031;-67
2021/07/25 05:40:42;;;;;;;;;;;;;;;;;;1478477;40;7082;-66
2021/07/25 05:41:44;;;;;;;;;;;;;;;;;;1479140;40;7184;-66
2021/07/25 05:42:47;;;;;;;;;;;;;;;;;;1479243;40;7007;-67
2021/07/25 05:43:49;;;;;;;;;;;;;;;;;;1479329;40;7019;-66
2021/07/25 05:44:52;;;;;;;;;;;;;;;;;;1479353;40;7030;-66
2021/07/25 05:45:54;;;;;;;;;;;;;;;;;;1483175;40;7958;-66
2021/07/25 05:46:57;;;;;;;;;;;;;;;;;;1483257;40;7003;-66
2021/07/25 05:48:00;;;;;;;;;;;;;;;;;;1478697;40;7039;-66
2021/07/25 05:49:02;;;;;;;;;;;;;;;;;;1478793;40;7198;-66
2021/07/25 05:50:05;;;;;;;;;;;;;;;;;;1479016;40;7203;-67
2021/07/25 05:51:08;;;;;;;;;;;;;;;;;;1482080;40;7031;-66
2021/07/25 05:52:10;;;;;;;;;;;;;;;;;;1483511;40;7012;-66
2021/07/25 05:53:12;;;;;;;;;;;;;;;;;;1479776;40;7031;-66
2021/07/25 05:54:15;;;;;;;;;;;;;;;;;;1479160;40;7008;-67
2021/07/25 05:55:21;;;;;;;;;;;;;;;;;;1478643;40;7055;-66
2021/07/25 05:56:24;;;;;;;;;;;;;;;;;;1479128;40;7234;-66
2021/07/25 05:57:26;;;;;;;;;;;;;;;;;;1479136;40;7066;-66
2021/07/25 05:58:28;;;;;;;;;;;;;;;;;;1478490;40;7050;-66
2021/07/25 05:59:31;;;;;;;;;;;;;;;;;;1480385;40;7282;-67
2021/07/25 06:00:37;;;;;;;;;;;;;;;;;;1482685;40;7027;-66
2021/07/25 06:01:43;;;;;;;;;;;;;;;;;;1478842;40;7015;-66
2021/07/25 06:02:58;;;;;;;;;;;;;;;;;;1481359;40;7020;-66
2021/07/25 06:04:03;;;;;;;;;;;;;;;;;;1483157;40;7218;-66
2021/07/25 06:05:07;;;;;;;;;;;;;;;;;;1482960;40;7951;-66
2021/07/25 06:06:09;;;;;;;;;;;;;;;;;;1478891;40;6999;-66
2021/07/25 06:07:12;;;;;;;;;;;;;;;;;;1479208;40;7056;-66
2021/07/25 06:08:14;;;;;;;;;;;;;;;;;;1482873;40;7008;-66
2021/07/25 06:09:16;;;;;;;;;;;;;;;;;;1483237;40;7047;-67
2021/07/25 06:10:21;;;;;;;;;;;;;;;;;;1483404;40;7008;-66
2021/07/25 06:11:24;;;;;;;;;;;;;;;;;;1483026;40;7947;-67
2021/07/25 06:12:26;;;;;;;;;;;;;;;;;;1478996;40;7008;-66
2021/07/25 06:13:28;;;;;;;;;;;;;;;;;;1479205;40;7004;-66
2021/07/25 06:14:31;;;;;;;;;;;;;;;;;;1479395;40;7003;-66
2021/07/25 06:15:34;;;;;;;;;;;;;;;;;;1478965;40;7016;-66
2021/07/25 06:16:37;;;;;;;;;;;;;;;;;;1479163;40;6983;-66
2021/07/25 06:17:39;;;;;;;;;;;;;;;;;;1479271;40;7058;-66
2021/07/25 06:18:45;;;;;;;;;;;;;;;;;;1479228;40;7056;-66
2021/07/25 06:19:48;;;;;;;;;;;;;;;;;;1479142;40;7004;-66
2021/07/25 06:20:50;;;;;;;;;;;;;;;;;;1478998;40;7011;-67
2021/07/25 06:21:53;;;;;;;;;;;;;;;;;;1478692;40;7027;-66
2021/07/25 06:22:56;;;;;;;;;;;;;;;;;;1478914;40;7004;-67
2021/07/25 06:23:59;;;;;;;;;;;;;;;;;;1480265;40;7545;-66
2021/07/25 06:25:03;;;;;;;;;;;;;;;;;;1481718;40;6999;-67
2021/07/25 06:26:05;;;;;;;;;;;;;;;;;;1478559;40;7007;-66
2021/07/25 06:27:07;;;;;;;;;;;;;;;;;;1478938;40;7207;-66
2021/07/25 06:28:10;;;;;;;;;;;;;;;;;;1478856;40;7008;-66
2021/07/25 06:29:12;;;;;;;;;;;;;;;;;;1478448;40;7530;-66
2021/07/25 06:30:15;;;;;;;;;;;;;;;;;;1482433;40;7081;-66
2021/07/25 06:31:18;;;;;;;;;;;;;;;;;;1482713;40;7007;-66
2021/07/25 06:32:20;;;;;;;;;;;;;;;;;;1482912;40;7012;-66
2021/07/25 06:33:23;;;;;;;;;;;;;;;;;;1480244;40;7023;-66
2021/07/25 06:34:25;;;;;;;;;;;;;;;;;;1478992;40;7488;-66
2021/07/25 06:35:32;;;;;;;;;;;;;;;;;;1478824;40;7039;-67
2021/07/25 06:36:35;;;;;;;;;;;;;;;;;;1478644;40;7004;-67
2021/07/25 06:37:37;;;;;;;;;;;;;;;;;;1479025;40;7035;-66
2021/07/25 06:38:42;;;;;;;;;;;;;;;;;;1482589;40;6999;-67
2021/07/25 06:39:44;;;;;;;;;;;;;;;;;;1481896;40;6999;-66
2021/07/25 06:40:51;;;;;;;;;;;;;;;;;;1478157;40;7239;-66
2021/07/25 06:41:53;;;;;;;;;;;;;;;;;;1478899;40;7101;-66
2021/07/25 06:42:56;;;;;;;;;;;;;;;;;;1478777;40;7039;-66
2021/07/25 06:43:59;;;;;;;;;;;;;;;;;;1478938;40;7007;-66
2021/07/25 06:45:02;;;;;;;;;;;;;;;;;;1479208;40;7003;-67
2021/07/25 06:46:04;;;;;;;;;;;;;;;;;;1483412;40;7043;-66
2021/07/25 06:47:07;;;;;;;;;;;;;;;;;;1482563;40;7199;-66
2021/07/25 06:48:19;;;;;;;;;;;;;;;;;;1483014;40;7012;-67
2021/07/25 06:49:22;;;;;;;;;;;;;;;;;;1478728;40;7051;-67
2021/07/25 06:50:26;;;;;;;;;;;;;;;;;;1478964;40;7233;-66
2021/07/25 06:51:28;;;;;;;;;;;;;;;;;;1478721;40;8612;-66
2021/07/25 06:52:33;;;;;;;;;;;;;;;;;;1478767;40;6999;-67
2021/07/25 06:53:36;;;;;;;;;;;;;;;;;;1480458;40;6999;-67
2021/07/25 06:54:38;;;;;;;;;;;;;;;;;;1483199;40;7187;-66
2021/07/25 06:55:40;;;;;;;;;;;;;;;;;;1483103;40;6999;-66
2021/07/25 06:56:43;;;;;;;;;;;;;;;;;;1483700;40;6999;-66
2021/07/25 06:57:46;;;;;;;;;;;;;;;;;;1483050;40;7281;-66
2021/07/25 06:58:48;;;;;;;;;;;;;;;;;;1482984;40;7035;-67
2021/07/25 06:59:51;;;;;;;;;;;;;;;;;;1480236;40;7007;-66
2021/07/25 07:00:53;;;;;;;;;;;;;;;;;;1479221;40;7016;-67
2021/07/25 07:01:56;;;;;;;;;;;;;;;;;;1481858;40;7027;-66
2021/07/25 07:02:58;;;;;;;;;;;;;;;;;;1482237;40;7923;-66
2021/07/25 07:04:01;;;;;;;;;;;;;;;;;;1478863;40;7910;-67
2021/07/25 07:05:04;;;;;;;;;;;;;;;;;;1479557;40;7927;-66
2021/07/25 07:06:09;;;;;;;;;;;;;;;;;;1479331;40;7008;-66
2021/07/25 07:07:11;;;;;;;;;;;;;;;;;;1478901;40;7052;-67
2021/07/25 07:08:14;;;;;;;;;;;;;;;;;;1478839;40;7016;-67
2021/07/25 07:09:16;;;;;;;;;;;;;;;;;;1478716;40;7908;-67
2021/07/25 07:10:20;;;;;;;;;;;;;;;;;;1478571;40;7915;-66
2021/07/25 07:11:27;;;;;;;;;;;;;;;;;;1479309;40;7075;-66
2021/07/25 07:12:29;;;;;;;;;;;;;;;;;;1478875;40;7016;-66
2021/07/25 07:13:31;;;;;;;;;;;;;;;;;;1479785;40;7291;-66
2021/07/25 07:14:34;;;;;;;;;;;;;;;;;;1478647;40;7115;-66
2021/07/25 07:15:38;;;;;;;;;;;;;;;;;;1481315;40;7020;-67
2021/07/25 07:16:40;;;;;;;;;;;;;;;;;;1482384;40;7939;-67
2021/07/25 07:17:43;;;;;;;;;;;;;;;;;;1482245;40;7019;-66
2021/07/25 07:18:46;;;;;;;;;;;;;;;;;;1483182;40;7043;-66
2021/07/25 07:19:48;;;;;;;;;;;;;;;;;;1483306;40;7015;-66
2021/07/25 07:20:51;;;;;;;;;;;;;;;;;;1482770;40;7004;-66
2021/07/25 07:21:53;;;;;;;;;;;;;;;;;;1482762;40;7008;-66
2021/07/25 07:23:00;;;;;;;;;;;;;;;;;;1480110;40;6995;-67